createdAt,value
2019-05-02T00:02:02.822Z,82.89
2019-05-02T00:07:07.372Z,83.59
2019-05-02T00:12:15.769Z,83.92
2019-05-02T00:17:20.169Z,84.01
2019-05-02T00:22:24.394Z,84.07
2019-05-02T00:27:27.615Z,83.00
2019-05-02T00:32:31.107Z,83.00
2019-05-02T00:37:34.644Z,84.13
2019-05-02T00:42:38.208Z,82.32
2019-05-02T00:47:53.357Z,82.32
2019-05-02T00:52:56.955Z,82.53
2019-05-02T00:58:00.567Z,82.53
2019-05-02T01:03:04.110Z,81.93
2019-05-02T01:08:07.425Z,81.93
2019-05-02T01:13:10.606Z,81.42
2019-05-02T01:18:14.133Z,81.31
2019-05-02T01:23:17.931Z,81.42
2019-05-02T01:28:49.132Z,81.77
2019-05-02T01:34:01.274Z,82.54
2019-05-02T01:39:08.713Z,81.40
2019-05-02T01:44:11.729Z,81.44
2019-05-02T01:49:16.796Z,81.85
2019-05-02T01:54:22.391Z,82.32
2019-05-02T01:59:29.126Z,83.46
2019-05-02T02:04:30.645Z,83.24
2019-05-02T02:09:33.865Z,82.20
2019-05-02T02:14:38.517Z,82.17
2019-05-02T02:19:49.345Z,81.39
2019-05-02T02:25:11.452Z,82.49
2019-05-02T02:30:17.723Z,82.05
2019-05-02T02:35:20.593Z,82.24
2019-05-02T02:40:32.836Z,81.32
2019-05-02T02:45:58.013Z,81.91
2019-05-02T02:51:00.583Z,81.94
2019-05-02T02:56:06.430Z,82.36
2019-05-02T03:01:09.945Z,82.82
2019-05-02T03:06:13.552Z,83.22
2019-05-02T03:11:23.590Z,82.94
2019-05-02T03:16:25.534Z,82.06
2019-05-02T03:21:28.066Z,81.58
2019-05-02T03:26:32.159Z,81.16
2019-05-02T03:31:36.781Z,80.57
2019-05-02T03:36:39.364Z,80.56
2019-05-02T03:41:43.068Z,79.70
2019-05-02T03:46:45.974Z,79.21
2019-05-02T03:51:49.444Z,79.42
2019-05-02T03:56:53.420Z,80.07
2019-05-02T04:01:57.959Z,80.02
2019-05-02T04:07:03.448Z,80.77
2019-05-02T04:12:11.776Z,79.62
2019-05-02T04:17:12.964Z,80.08
2019-05-02T04:27:19.549Z,79.63
2019-05-02T04:32:22.364Z,78.81
2019-05-02T04:37:25.590Z,79.12
2019-05-02T04:42:29.561Z,77.61
2019-05-02T04:47:33.084Z,78.98
2019-05-02T04:52:38.453Z,79.33
2019-05-02T04:57:47.231Z,80.10
2019-05-02T05:02:48.396Z,80.03
2019-05-02T05:07:51.632Z,80.50
2019-05-02T05:12:57.072Z,81.19
2019-05-02T05:18:04.576Z,80.47
2019-05-02T05:23:05.336Z,80.43
2019-05-02T05:28:09.116Z,80.59
2019-05-02T05:33:11.873Z,80.83
2019-05-02T05:38:15.332Z,80.85
2019-05-02T05:43:20.575Z,79.71
2019-05-02T05:48:24.271Z,80.78
2019-05-02T05:53:28.185Z,80.39
2019-05-02T05:58:31.898Z,81.17
2019-05-02T06:03:41.635Z,81.98
2019-05-02T06:08:40.839Z,82.36
2019-05-02T06:13:48.475Z,82.41
2019-05-02T06:18:50.061Z,81.87
2019-05-02T06:23:53.264Z,81.60
2019-05-02T06:28:56.542Z,82.08
2019-05-02T06:34:02.019Z,81.93
2019-05-02T06:39:05.663Z,81.86
2019-05-02T06:44:10.290Z,82.58
2019-05-02T06:49:13.420Z,81.80
2019-05-02T06:54:17.942Z,82.04
2019-05-02T06:59:21.569Z,82.96
2019-05-02T07:04:25.086Z,83.19
2019-05-02T07:09:39.818Z,82.87
2019-05-02T07:14:33.052Z,83.25
2019-05-02T07:19:41.375Z,84.17
2019-05-02T07:24:44.581Z,84.70
2019-05-02T07:29:52.117Z,84.63
2019-05-02T07:34:53.682Z,84.72
2019-05-02T07:39:56.892Z,84.93
2019-05-02T07:45:04.451Z,85.72
2019-05-02T07:50:10.526Z,87.23
2019-05-02T07:55:11.359Z,87.14
2019-05-02T08:00:14.831Z,88.58
2019-05-02T08:05:21.799Z,89.42
2019-05-02T08:10:24.062Z,90.20
2019-05-02T08:15:27.193Z,91.49
2019-05-02T08:20:29.706Z,92.28
2019-05-02T08:25:32.942Z,91.69
2019-05-02T08:30:41.919Z,90.79
2019-05-02T08:35:44.837Z,89.36
2019-05-02T08:40:47.746Z,88.36
2019-05-02T08:45:52.065Z,89.42
2019-05-02T08:50:54.930Z,89.71
2019-05-02T08:55:58.237Z,91.56
2019-05-02T09:01:01.401Z,92.69
2019-05-02T09:06:06.237Z,92.53
2019-05-02T09:11:14.176Z,92.54
2019-05-02T09:16:14.966Z,91.38
2019-05-02T09:21:18.460Z,91.10
2019-05-02T09:26:33.281Z,92.24
2019-05-02T09:31:26.249Z,92.92
2019-05-02T09:36:29.485Z,93.33
2019-05-02T09:41:36.201Z,94.07
2019-05-02T09:46:38.147Z,93.05
2019-05-02T09:51:42.016Z,92.52
2019-05-02T09:56:46.813Z,91.82
2019-05-02T10:01:50.099Z,91.12
2019-05-02T10:06:53.763Z,90.63
2019-05-02T10:11:56.715Z,90.89
2019-05-02T10:17:03.083Z,89.15
2019-05-02T10:22:06.715Z,90.69
2019-05-02T10:27:10.035Z,91.50
2019-05-02T10:32:16.569Z,91.31
2019-05-02T10:37:17.583Z,92.75
2019-05-02T10:42:22.080Z,93.44
2019-05-02T10:47:25.740Z,93.43
2019-05-02T10:52:32.229Z,93.07
2019-05-02T10:57:34.968Z,92.43
2019-05-02T11:02:55.508Z,92.92
2019-05-02T11:08:04.658Z,93.02
2019-05-02T11:13:23.177Z,93.53
2019-05-02T11:18:40.307Z,92.36
2019-05-02T11:23:33.671Z,91.80
2019-05-02T11:28:36.910Z,91.83
2019-05-02T11:33:41.877Z,92.16
2019-05-02T11:38:48.150Z,93.58
2019-05-02T11:43:52.192Z,94.49
2019-05-02T11:48:58.565Z,95.06
2019-05-02T11:54:05.064Z,95.26
2019-05-02T11:59:05.449Z,95.48
2019-05-02T12:04:13.041Z,95.08
2019-05-02T12:09:15.070Z,95.40
2019-05-02T12:14:18.210Z,95.62
2019-05-02T12:19:22.882Z,96.50
2019-05-02T12:24:26.680Z,96.00
2019-05-02T12:29:30.251Z,96.77
2019-05-02T12:34:33.972Z,95.18
2019-05-02T12:39:37.198Z,96.23
2019-05-02T12:44:42.517Z,96.59
2019-05-02T12:49:45.728Z,97.22
2019-05-02T12:54:48.812Z,98.47
2019-05-02T12:59:52.498Z,97.83
2019-05-02T13:04:55.300Z,98.56
2019-05-02T13:09:58.602Z,99.00
2019-05-02T13:15:02.354Z,97.84
2019-05-02T13:20:08.121Z,95.86
2019-05-02T13:25:17.827Z,96.74
2019-05-02T13:30:32.796Z,97.28
2019-05-02T13:35:44.656Z,95.96
2019-05-02T13:40:48.174Z,95.71
2019-05-02T13:46:02.357Z,93.01
2019-05-02T13:51:05.642Z,94.36
2019-05-02T13:56:46.230Z,93.79
2019-05-02T14:01:52.298Z,93.79
2019-05-02T14:06:55.803Z,93.26
2019-05-02T14:12:11.916Z,93.53
2019-05-02T14:17:14.840Z,94.05
2019-05-02T14:22:18.054Z,94.30
2019-05-02T14:27:22.347Z,94.49
2019-05-02T14:32:26.592Z,93.87
2019-05-02T14:37:29.872Z,93.03
2019-05-02T14:42:33.278Z,91.48
2019-05-02T14:47:36.533Z,92.50
2019-05-02T14:52:43.965Z,90.11
2019-05-02T14:57:45.686Z,90.55
2019-05-02T15:02:49.629Z,90.26
2019-05-02T15:07:56.741Z,90.37
2019-05-02T15:13:03.815Z,89.23
2019-05-02T15:18:08.001Z,89.31
2019-05-02T15:23:17.587Z,88.76
2019-05-02T15:28:19.862Z,87.77
2019-05-02T15:33:25.633Z,88.94
2019-05-02T15:38:29.088Z,87.82
2019-05-02T15:43:32.566Z,86.43
2019-05-02T15:48:36.361Z,87.75
2019-05-02T15:54:04.397Z,86.33
2019-05-02T15:58:58.104Z,86.07
2019-05-02T16:04:02.293Z,86.83
2019-05-02T16:09:07.343Z,86.42
2019-05-02T16:14:10.277Z,85.93
2019-05-02T16:19:22.655Z,83.66
2019-05-02T16:24:18.749Z,82.10
2019-05-02T16:29:26.787Z,80.59
2019-05-02T16:34:32.545Z,78.02
2019-05-02T16:39:33.984Z,77.56
2019-05-02T16:44:37.669Z,75.93
2019-05-02T16:49:41.864Z,77.96
2019-05-02T16:54:45.210Z,77.75
2019-05-02T16:59:53.960Z,77.27
2019-05-02T17:04:54.707Z,72.48
2019-05-02T17:10:19.669Z,73.04
2019-05-02T17:15:31.249Z,72.36
2019-05-02T17:20:33.591Z,73.96
2019-05-02T17:25:37.047Z,71.14
2019-05-02T17:30:42.535Z,72.39
2019-05-02T17:35:49.937Z,74.99
2019-05-02T17:40:53.865Z,72.16
2019-05-02T17:45:56.649Z,72.01
2019-05-02T17:51:12.424Z,72.11
2019-05-02T17:56:20.607Z,71.37
2019-05-02T18:01:33.299Z,73.24
2019-05-02T18:06:35.778Z,70.27
2019-05-02T18:11:39.329Z,69.79
2019-05-02T18:16:47.137Z,69.96
2019-05-02T18:21:47.418Z,67.93
2019-05-02T18:26:51.710Z,67.88
2019-05-02T18:31:55.476Z,67.18
2019-05-02T18:37:03.168Z,68.26
2019-05-02T18:42:03.998Z,67.51
2019-05-02T18:47:07.230Z,68.46
2019-05-02T18:52:11.815Z,69.22
2019-05-02T18:57:17.121Z,68.35
2019-05-02T19:02:21.553Z,68.81
2019-05-02T19:07:32.957Z,68.68
2019-05-02T19:12:32.595Z,69.56
2019-05-02T19:17:38.401Z,69.21
2019-05-02T19:22:48.858Z,70.57
2019-05-02T19:28:14.370Z,70.58
2019-05-02T19:33:20.905Z,71.25
2019-05-02T19:38:26.225Z,71.15
2019-05-02T19:43:28.771Z,72.41
2019-05-02T19:48:36.803Z,72.44
2019-05-02T19:53:37.687Z,71.10
2019-05-02T19:58:42.579Z,69.38
2019-05-02T20:03:46.357Z,70.26
2019-05-02T20:08:52.513Z,70.78
2019-05-02T20:13:54.697Z,69.20
2019-05-02T20:18:57.839Z,69.51
2019-05-02T20:24:03.918Z,69.22
2019-05-02T20:29:06.745Z,69.02
2019-05-02T20:34:11.727Z,69.63
2019-05-02T20:39:15.701Z,71.41
2019-05-02T20:44:19.304Z,71.85
2019-05-02T20:49:22.627Z,70.76
2019-05-02T20:54:26.484Z,70.83
2019-05-02T20:59:32.189Z,67.90
2019-05-02T21:04:35.755Z,68.72
2019-05-02T21:09:48.185Z,69.92
2019-05-02T21:14:52.333Z,70.21
2019-05-02T21:19:56.178Z,71.25
2019-05-02T21:24:59.895Z,72.60
2019-05-02T21:30:05.422Z,71.67
2019-05-02T21:35:08.906Z,71.74
2019-05-02T21:40:12.390Z,72.80
2019-05-02T21:45:15.814Z,73.16
2019-05-02T21:50:38.847Z,73.05
2019-05-02T21:56:02.952Z,72.91
2019-05-02T22:01:09.522Z,72.21
2019-05-02T22:06:12.730Z,70.98
2019-05-02T22:11:15.742Z,71.68
2019-05-02T22:16:18.947Z,71.10
2019-05-02T22:21:22.771Z,71.52
2019-05-02T22:26:26.296Z,70.16
2019-05-02T22:31:29.165Z,70.92
2019-05-02T22:36:32.924Z,71.12
2019-05-02T22:41:36.331Z,71.49
2019-05-02T22:46:45.804Z,71.73
2019-05-02T22:51:49.952Z,71.29
2019-05-02T22:56:53.699Z,70.65
2019-05-02T23:01:57.311Z,71.21
2019-05-02T23:07:02.363Z,71.32
2019-05-02T23:12:06.240Z,71.43
2019-05-02T23:17:09.471Z,71.80
2019-05-02T23:22:12.854Z,71.64
2019-05-02T23:27:23.352Z,71.88
2019-05-02T23:32:26.641Z,72.06
2019-05-02T23:37:32.615Z,71.48
2019-05-02T23:42:35.838Z,71.46
2019-05-02T23:47:39.037Z,71.48
2019-05-02T23:52:42.246Z,71.63
2019-05-02T23:57:45.523Z,72.06
